createdAt,value
2023-03-06T00:00:17.135Z,3.94
2023-03-06T00:03:01.899Z,3.95
2023-03-06T00:05:46.944Z,3.86
2023-03-06T00:08:31.703Z,3.48
2023-03-06T00:11:16.567Z,3.66
2023-03-06T00:14:01.424Z,3.55
2023-03-06T00:16:46.374Z,3.72
2023-03-06T00:19:31.300Z,3.73
2023-03-06T00:22:16.089Z,3.81
2023-03-06T00:25:01.090Z,3.44
2023-03-06T00:27:45.995Z,3.40
2023-03-06T00:30:31.478Z,3.63
2023-03-06T00:33:16.390Z,3.35
2023-03-06T00:36:01.376Z,3.68
2023-03-06T00:38:46.261Z,3.69
2023-03-06T00:41:31.220Z,3.30
2023-03-06T00:44:16.075Z,3.33
2023-03-06T00:47:00.844Z,3.42
2023-03-06T00:49:45.904Z,3.08
2023-03-06T00:52:30.749Z,3.24
2023-03-06T00:55:15.773Z,3.19
2023-03-06T00:58:00.591Z,3.29
2023-03-06T01:00:45.506Z,3.60
2023-03-06T01:03:30.780Z,3.57
2023-03-06T01:06:15.541Z,3.18
2023-03-06T01:09:00.590Z,3.29
2023-03-06T01:11:45.511Z,3.53
2023-03-06T01:14:30.536Z,3.50
2023-03-06T01:17:15.317Z,3.39
2023-03-06T01:20:00.307Z,3.23
2023-03-06T01:22:45.169Z,3.32
2023-03-06T01:25:30.180Z,3.52
2023-03-06T01:28:15.043Z,3.38
2023-03-06T01:30:59.844Z,3.15
2023-03-06T01:33:44.705Z,3.39
2023-03-06T01:36:29.563Z,3.05
2023-03-06T01:39:14.339Z,3.41
2023-03-06T01:41:59.109Z,3.27
2023-03-06T01:44:44.151Z,3.21
2023-03-06T01:47:29.079Z,3.18
2023-03-06T01:50:14.176Z,3.37
2023-03-06T01:52:59.198Z,3.19
2023-03-06T01:55:44.023Z,3.45
2023-03-06T01:58:28.921Z,2.95
2023-03-06T02:01:13.862Z,2.79
2023-03-06T02:03:58.980Z,2.77
2023-03-06T02:06:43.831Z,2.76
2023-03-06T02:09:28.597Z,2.71
2023-03-06T02:12:13.488Z,2.88
2023-03-06T02:14:58.546Z,2.92
2023-03-06T02:17:43.372Z,2.92
2023-03-06T02:20:28.131Z,2.85
2023-03-06T02:23:13.051Z,3.10
2023-03-06T02:25:57.942Z,3.12
2023-03-06T02:28:42.954Z,3.28
2023-03-06T02:31:27.746Z,3.36
2023-03-06T02:34:12.704Z,3.16
2023-03-06T02:36:57.533Z,3.25
2023-03-06T02:39:42.505Z,2.93
2023-03-06T02:42:27.475Z,3.19
2023-03-06T02:45:12.452Z,3.26
2023-03-06T02:47:57.346Z,3.39
2023-03-06T02:50:42.403Z,3.31
2023-03-06T02:53:27.428Z,3.21
2023-03-06T02:56:12.165Z,3.00
2023-03-06T02:58:57.017Z,3.00
2023-03-06T03:01:41.914Z,2.99
2023-03-06T03:04:26.987Z,2.92
2023-03-06T03:07:11.943Z,2.88
2023-03-06T03:09:56.730Z,2.52
2023-03-06T03:12:41.860Z,2.51
2023-03-06T03:15:26.638Z,2.95
2023-03-06T03:18:11.580Z,3.16
2023-03-06T03:20:56.344Z,3.06
2023-03-06T03:23:41.201Z,2.60
2023-03-06T03:26:25.949Z,2.61
2023-03-06T03:29:10.923Z,2.91
2023-03-06T03:31:55.948Z,2.26
2023-03-06T03:34:40.829Z,2.88
2023-03-06T03:37:25.824Z,2.48
2023-03-06T03:40:10.699Z,2.57
2023-03-06T03:42:55.518Z,2.06
2023-03-06T03:45:40.430Z,2.57
2023-03-06T03:48:25.501Z,2.50
2023-03-06T03:51:10.312Z,2.96
2023-03-06T03:53:55.299Z,2.49
2023-03-06T03:56:40.182Z,2.74
2023-03-06T03:59:24.910Z,2.39
2023-03-06T04:02:09.941Z,2.39
2023-03-06T04:04:54.799Z,2.56
2023-03-06T04:07:39.682Z,2.79
2023-03-06T04:10:24.524Z,2.46
2023-03-06T04:13:10.195Z,2.93
2023-03-06T04:15:55.316Z,2.51
2023-03-06T04:18:40.067Z,2.83
2023-03-06T04:21:25.069Z,2.62
2023-03-06T04:24:09.856Z,2.76
2023-03-06T04:26:54.772Z,2.50
2023-03-06T04:29:39.674Z,2.81
2023-03-06T04:32:24.684Z,3.13
2023-03-06T04:35:09.433Z,2.69
2023-03-06T04:37:54.259Z,2.64
2023-03-06T04:40:39.047Z,2.51
2023-03-06T04:43:23.973Z,2.23
2023-03-06T04:46:08.988Z,2.46
2023-03-06T04:48:53.836Z,2.39
2023-03-06T04:51:38.659Z,2.83
2023-03-06T04:54:23.549Z,2.67
2023-03-06T04:57:08.579Z,2.40
2023-03-06T04:59:53.376Z,2.54
2023-03-06T05:02:38.342Z,2.70
2023-03-06T05:05:23.171Z,2.68
2023-03-06T05:08:08.029Z,2.17
2023-03-06T05:10:52.960Z,2.35
2023-03-06T05:13:38.005Z,2.20
2023-03-06T05:16:22.828Z,2.62
2023-03-06T05:19:07.609Z,2.77
2023-03-06T05:21:52.672Z,2.28
2023-03-06T05:24:37.428Z,2.44
2023-03-06T05:27:22.199Z,2.24
2023-03-06T05:30:07.084Z,2.92
2023-03-06T05:32:52.134Z,2.63
2023-03-06T05:35:36.975Z,2.34
2023-03-06T05:38:21.786Z,2.60
2023-03-06T05:41:06.741Z,2.54
2023-03-06T05:43:51.748Z,2.19
2023-03-06T05:46:36.827Z,2.76
2023-03-06T05:49:21.564Z,2.41
2023-03-06T05:52:06.523Z,2.82
2023-03-06T05:54:51.367Z,2.75
2023-03-06T05:57:36.273Z,2.95
2023-03-06T06:00:21.254Z,2.51
2023-03-06T06:03:06.148Z,2.17
2023-03-06T06:05:51.015Z,2.11
2023-03-06T06:08:35.845Z,2.71
2023-03-06T06:11:20.908Z,2.81
2023-03-06T06:14:05.753Z,2.63
2023-03-06T06:16:50.828Z,2.74
2023-03-06T06:19:35.681Z,2.50
2023-03-06T06:22:20.581Z,2.43
2023-03-06T06:25:05.392Z,2.91
2023-03-06T06:27:50.210Z,2.85
2023-03-06T06:30:35.188Z,2.39
2023-03-06T06:33:20.091Z,2.32
2023-03-06T06:36:05.086Z,2.71
2023-03-06T06:38:49.851Z,2.51
2023-03-06T06:44:40.045Z,2.58
2023-03-06T06:47:25.870Z,3.11
2023-03-06T06:50:10.826Z,3.41
2023-03-06T06:52:55.570Z,3.27
2023-03-06T06:55:40.596Z,3.68
2023-03-06T06:58:25.355Z,3.51
2023-03-06T07:01:10.270Z,3.44
2023-03-06T07:03:55.267Z,3.74
2023-03-06T07:06:39.977Z,3.92
2023-03-06T07:09:24.919Z,3.70
2023-03-06T07:12:09.706Z,3.38
2023-03-06T07:14:54.749Z,3.95
2023-03-06T07:17:39.608Z,4.20
2023-03-06T07:20:24.402Z,4.14
2023-03-06T07:23:09.278Z,4.46
2023-03-06T07:25:54.107Z,4.64
2023-03-06T07:28:51.634Z,4.49
2023-03-06T07:31:37.151Z,3.89
2023-03-06T07:34:22.029Z,4.29
2023-03-06T07:37:07.015Z,4.15
2023-03-06T07:39:52.072Z,3.95
2023-03-06T07:42:36.906Z,3.89
2023-03-06T07:45:21.728Z,4.37
2023-03-06T07:48:06.608Z,4.33
2023-03-06T07:50:51.287Z,4.69
2023-03-06T07:53:36.221Z,4.24
2023-03-06T07:56:21.346Z,4.74
2023-03-06T07:59:06.292Z,5.00
2023-03-06T08:01:51.184Z,4.55
2023-03-06T08:04:36.263Z,4.72
2023-03-06T08:07:21.065Z,5.12
2023-03-06T08:10:05.850Z,5.08
2023-03-06T08:12:50.597Z,5.18
2023-03-06T08:15:35.517Z,5.20
2023-03-06T08:18:20.308Z,5.19
2023-03-06T08:21:05.236Z,5.31
2023-03-06T08:23:50.143Z,5.40
2023-03-06T08:26:34.956Z,5.55
2023-03-06T08:29:20.090Z,5.36
2023-03-06T08:32:04.835Z,5.69
2023-03-06T08:34:49.696Z,5.03
2023-03-06T08:37:34.635Z,5.42
2023-03-06T08:40:19.502Z,5.53
2023-03-06T08:43:04.333Z,5.85
2023-03-06T08:45:49.376Z,5.79
2023-03-06T08:48:34.721Z,6.06
2023-03-06T08:51:19.562Z,6.49
2023-03-06T08:54:04.557Z,5.99
2023-03-06T08:56:49.565Z,6.03
2023-03-06T08:59:34.562Z,6.08
2023-03-06T09:02:19.446Z,6.35
2023-03-06T09:05:04.340Z,5.57
2023-03-06T09:07:49.170Z,5.80
2023-03-06T09:10:33.965Z,6.13
2023-03-06T09:13:18.914Z,6.49
2023-03-06T09:16:03.657Z,6.80
2023-03-06T09:18:48.631Z,6.15
2023-03-06T09:21:33.462Z,5.93
2023-03-06T09:24:18.358Z,6.28
2023-03-06T09:27:03.226Z,6.61
2023-03-06T09:29:48.144Z,6.73
2023-03-06T09:32:33.083Z,6.17
2023-03-06T09:35:18.429Z,5.99
2023-03-06T09:38:03.304Z,5.95
2023-03-06T09:40:48.039Z,6.30
2023-03-06T09:43:32.953Z,5.90
2023-03-06T09:46:17.778Z,6.15
2023-03-06T09:49:02.556Z,6.67
2023-03-06T09:51:47.449Z,6.66
2023-03-06T09:54:32.257Z,7.11
2023-03-06T09:57:16.995Z,6.60
2023-03-06T10:00:04.325Z,7.33
2023-03-06T10:02:50.036Z,7.01
2023-03-06T10:05:35.327Z,7.20
2023-03-06T10:08:20.115Z,6.74
2023-03-06T10:11:04.922Z,7.35
2023-03-06T10:13:49.735Z,7.49
2023-03-06T10:16:34.516Z,7.17
2023-03-06T10:19:19.445Z,7.30
2023-03-06T10:22:04.348Z,8.05
2023-03-06T10:24:49.168Z,8.41
2023-03-06T10:27:34.171Z,8.52
2023-03-06T10:30:18.930Z,8.40
2023-03-06T10:33:03.872Z,8.38
2023-03-06T10:35:49.148Z,8.10
2023-03-06T10:38:34.100Z,8.07
2023-03-06T10:41:18.933Z,8.14
2023-03-06T10:44:03.713Z,8.23
2023-03-06T10:46:48.839Z,8.79
2023-03-06T10:49:34.080Z,9.39
2023-03-06T10:52:19.166Z,8.38
2023-03-06T10:55:04.081Z,9.04
2023-03-06T10:57:49.045Z,9.25
2023-03-06T11:00:34.045Z,9.35
2023-03-06T11:03:19.023Z,9.72
2023-03-06T11:06:04.032Z,10.37
2023-03-06T11:08:48.898Z,10.48
2023-03-06T11:11:37.766Z,9.58
2023-03-06T11:14:23.304Z,9.58
2023-03-06T11:17:08.305Z,9.36
2023-03-06T11:19:53.294Z,10.08
2023-03-06T11:22:38.114Z,10.28
2023-03-06T11:25:22.989Z,10.21
2023-03-06T11:28:07.859Z,9.68
2023-03-06T11:30:52.925Z,9.41
2023-03-06T11:33:37.933Z,8.82
2023-03-06T11:36:22.788Z,9.12
2023-03-06T11:39:07.693Z,9.40
2023-03-06T11:41:52.586Z,9.92
2023-03-06T11:44:37.656Z,10.56
2023-03-06T11:47:22.470Z,10.24
2023-03-06T11:50:07.491Z,11.55
2023-03-06T11:52:52.267Z,12.11
2023-03-06T11:55:37.254Z,11.65
2023-03-06T11:58:22.209Z,12.09
2023-03-06T12:01:07.157Z,12.14
2023-03-06T12:03:52.224Z,11.41
2023-03-06T12:06:37.130Z,11.57
2023-03-06T12:09:21.981Z,11.42
2023-03-06T12:12:06.832Z,11.90
2023-03-06T12:14:51.824Z,11.77
2023-03-06T12:17:36.747Z,10.63
2023-03-06T12:20:21.787Z,11.75
2023-03-06T12:23:14.905Z,12.44
2023-03-06T12:26:01.072Z,13.22
2023-03-06T12:28:46.554Z,14.01
2023-03-06T12:31:32.018Z,13.41
2023-03-06T12:34:16.779Z,13.63
2023-03-06T12:37:01.856Z,14.42
2023-03-06T12:39:46.771Z,13.82
2023-03-06T12:42:31.661Z,14.32
2023-03-06T12:45:16.622Z,14.49
2023-03-06T12:48:01.599Z,14.89
2023-03-06T12:50:46.441Z,14.76
2023-03-06T12:53:31.317Z,14.87
2023-03-06T12:56:16.237Z,14.98
2023-03-06T12:59:01.156Z,14.89
2023-03-06T13:01:46.205Z,15.37
2023-03-06T13:04:31.034Z,14.58
2023-03-06T13:07:16.000Z,15.19
2023-03-06T13:10:01.005Z,15.08
2023-03-06T13:12:45.876Z,14.94
2023-03-06T13:15:30.740Z,14.80
2023-03-06T13:18:15.608Z,15.13
2023-03-06T13:21:00.678Z,15.20
2023-03-06T13:23:45.621Z,15.37
2023-03-06T13:26:30.478Z,15.45
2023-03-06T13:29:15.442Z,16.31
2023-03-06T13:32:00.485Z,16.27
2023-03-06T13:34:45.725Z,16.48
2023-03-06T13:37:30.508Z,16.65
2023-03-06T13:40:15.388Z,16.60
2023-03-06T13:43:00.096Z,16.94
2023-03-06T13:45:45.133Z,16.91
2023-03-06T13:48:43.823Z,16.98
2023-03-06T13:51:29.552Z,17.39
2023-03-06T13:54:14.327Z,17.28
2023-03-06T13:56:59.247Z,17.98
2023-03-06T13:59:44.131Z,17.39
2023-03-06T14:02:29.089Z,17.66
2023-03-06T14:05:13.941Z,17.46
2023-03-06T14:07:58.784Z,18.25
2023-03-06T14:10:43.792Z,17.09
2023-03-06T14:13:35.044Z,17.90
2023-03-06T14:16:23.244Z,16.40
2023-03-06T14:19:08.172Z,17.13
2023-03-06T14:21:53.048Z,17.92
2023-03-06T14:24:37.882Z,18.26
2023-03-06T14:27:22.866Z,19.46
2023-03-06T14:30:07.908Z,18.90
2023-03-06T14:32:52.762Z,19.05
2023-03-06T14:35:37.618Z,19.01
2023-03-06T14:38:22.591Z,19.26
2023-03-06T14:41:07.459Z,19.35
2023-03-06T14:43:52.419Z,20.04
2023-03-06T14:46:37.446Z,20.61
2023-03-06T14:49:22.243Z,21.05
2023-03-06T14:52:07.116Z,19.87
2023-03-06T14:54:51.832Z,20.65
2023-03-06T14:57:36.932Z,20.11
2023-03-06T15:00:21.750Z,20.17
2023-03-06T15:03:06.731Z,20.09
2023-03-06T15:05:51.980Z,19.55
2023-03-06T15:08:36.905Z,19.76
2023-03-06T15:11:21.773Z,19.62
2023-03-06T15:14:06.698Z,19.38
2023-03-06T15:16:51.583Z,19.85
2023-03-06T15:19:36.397Z,18.85
2023-03-06T15:22:21.677Z,17.28
2023-03-06T15:25:06.812Z,16.35
2023-03-06T15:27:51.608Z,15.12
2023-03-06T15:30:36.397Z,13.80
2023-03-06T15:33:21.252Z,13.94
2023-03-06T15:36:06.087Z,12.68
2023-03-06T15:38:50.861Z,11.20
2023-03-06T15:41:35.709Z,10.29
2023-03-06T15:44:20.549Z,9.76
2023-03-06T15:47:09.395Z,9.93
2023-03-06T15:49:54.555Z,10.56
2023-03-06T15:52:39.378Z,9.71
2023-03-06T15:55:24.370Z,9.07
2023-03-06T15:58:09.229Z,9.80
2023-03-06T16:00:54.110Z,9.64
2023-03-06T16:03:38.908Z,9.75
2023-03-06T16:06:23.841Z,9.78
2023-03-06T16:09:08.812Z,9.00
2023-03-06T16:11:53.788Z,9.44
2023-03-06T16:14:38.820Z,9.71
2023-03-06T16:17:23.531Z,9.84
2023-03-06T16:20:08.504Z,10.43
2023-03-06T16:22:53.408Z,10.33
2023-03-06T16:25:38.351Z,9.95
2023-03-06T16:28:23.280Z,10.65
2023-03-06T16:31:08.318Z,10.52
2023-03-06T16:33:53.109Z,10.03
2023-03-06T16:36:38.027Z,9.95
2023-03-06T16:39:23.034Z,9.47
2023-03-06T16:42:07.839Z,8.95
2023-03-06T16:44:52.962Z,9.11
2023-03-06T16:47:37.695Z,8.80
2023-03-06T16:50:22.774Z,9.29
2023-03-06T16:53:07.524Z,9.05
2023-03-06T16:55:52.564Z,9.42
2023-03-06T16:58:37.338Z,9.42
2023-03-06T17:01:22.315Z,8.87
2023-03-06T17:04:07.189Z,8.95
2023-03-06T17:06:52.036Z,8.84
2023-03-06T17:09:36.960Z,9.13
2023-03-06T17:12:21.721Z,7.82
2023-03-06T17:15:06.746Z,7.15
2023-03-06T17:17:51.695Z,7.90
2023-03-06T17:20:36.515Z,7.54
2023-03-06T17:23:21.337Z,6.71
2023-03-06T17:26:06.317Z,7.11
2023-03-06T17:28:51.265Z,7.25
2023-03-06T17:31:36.021Z,6.94
2023-03-06T17:34:23.042Z,6.41
2023-03-06T17:37:09.343Z,6.23
2023-03-06T17:39:54.188Z,6.68
2023-03-06T17:42:39.064Z,6.75
2023-03-06T17:45:24.155Z,6.27
2023-03-06T17:48:09.262Z,6.24
2023-03-06T17:50:54.100Z,5.80
2023-03-06T17:53:39.115Z,5.92
2023-03-06T17:56:24.041Z,6.10
2023-03-06T17:59:08.875Z,6.14
2023-03-06T18:01:53.875Z,6.27
2023-03-06T18:04:38.795Z,6.83
2023-03-06T18:07:23.765Z,6.33
2023-03-06T18:10:08.662Z,6.14
2023-03-06T18:12:53.761Z,6.59
2023-03-06T18:15:38.646Z,6.39
2023-03-06T18:18:23.518Z,6.41
2023-03-06T18:21:08.321Z,6.16
2023-03-06T18:23:53.132Z,6.16
2023-03-06T18:26:38.019Z,6.13
2023-03-06T18:29:22.980Z,6.25
2023-03-06T18:32:07.809Z,6.03
2023-03-06T18:34:52.711Z,6.33
2023-03-06T18:37:37.518Z,6.04
2023-03-06T18:40:24.781Z,6.07
2023-03-06T18:43:09.930Z,6.12
2023-03-06T18:45:54.945Z,6.24
2023-03-06T18:48:40.277Z,5.92
2023-03-06T18:51:25.254Z,6.24
2023-03-06T18:54:10.068Z,6.60
2023-03-06T18:56:55.055Z,5.78
2023-03-06T18:59:39.918Z,6.45
2023-03-06T19:02:24.763Z,6.41
2023-03-06T19:05:09.756Z,6.42
2023-03-06T19:07:54.641Z,5.75
2023-03-06T19:10:39.594Z,5.36
2023-03-06T19:13:24.492Z,5.25
2023-03-06T19:16:09.347Z,5.67
2023-03-06T19:18:54.118Z,5.35
2023-03-06T19:21:39.063Z,5.13
2023-03-06T19:24:23.960Z,5.06
2023-03-06T19:27:08.893Z,5.36
2023-03-06T19:29:53.812Z,5.07
2023-03-06T19:32:38.806Z,4.51
2023-03-06T19:35:24.080Z,4.83
2023-03-06T19:38:08.990Z,4.17
2023-03-06T19:40:53.966Z,4.58
2023-03-06T19:43:38.887Z,4.07
2023-03-06T19:46:23.819Z,4.13
2023-03-06T19:49:08.726Z,3.87
2023-03-06T19:51:53.683Z,3.70
2023-03-06T19:54:38.562Z,3.67
2023-03-06T19:57:23.568Z,3.59
2023-03-06T20:00:08.462Z,3.69
2023-03-06T20:02:53.165Z,3.71
2023-03-06T20:05:38.300Z,3.49
2023-03-06T20:08:23.371Z,3.89
2023-03-06T20:11:08.317Z,3.41
2023-03-06T20:13:53.067Z,3.61
2023-03-06T20:16:37.936Z,3.83
2023-03-06T20:19:22.785Z,3.97
2023-03-06T20:22:07.879Z,4.01
2023-03-06T20:24:52.818Z,3.69
2023-03-06T20:27:37.659Z,4.04
2023-03-06T20:30:22.659Z,4.14
2023-03-06T20:33:07.578Z,3.86
2023-03-06T20:35:52.551Z,3.42
2023-03-06T20:38:37.500Z,3.54
2023-03-06T20:41:22.216Z,3.26
2023-03-06T20:44:07.113Z,3.26
2023-03-06T20:46:51.942Z,3.39
2023-03-06T20:49:36.850Z,3.72
2023-03-06T20:52:21.803Z,4.11
2023-03-06T20:55:06.738Z,3.83
2023-03-06T20:57:51.707Z,3.71
2023-03-06T21:00:36.737Z,4.38
2023-03-06T21:03:21.661Z,4.02
2023-03-06T21:06:06.731Z,3.94
2023-03-06T21:08:51.478Z,4.04
2023-03-06T21:11:36.444Z,3.86
2023-03-06T21:14:21.425Z,4.13
2023-03-06T21:17:06.193Z,3.77
2023-03-06T21:19:51.243Z,3.42
2023-03-06T21:22:36.087Z,4.42
2023-03-06T21:25:21.055Z,4.30
2023-03-06T21:28:05.928Z,4.26
2023-03-06T21:30:50.974Z,4.54
2023-03-06T21:33:35.784Z,3.61
2023-03-06T21:36:20.601Z,3.52
2023-03-06T21:39:05.403Z,4.06
2023-03-06T21:41:50.283Z,3.80
2023-03-06T21:44:35.444Z,4.21
2023-03-06T21:47:20.524Z,3.87
2023-03-06T21:50:05.376Z,4.16
2023-03-06T21:52:50.123Z,4.49
2023-03-06T21:55:35.041Z,4.53
2023-03-06T21:58:19.902Z,4.47
2023-03-06T22:01:04.946Z,4.51
2023-03-06T22:03:50.009Z,4.57
2023-03-06T22:06:34.903Z,4.66
2023-03-06T22:09:19.868Z,4.68
2023-03-06T22:12:04.692Z,4.97
2023-03-06T22:14:49.520Z,4.70
2023-03-06T22:17:34.401Z,4.54
2023-03-06T22:20:19.192Z,4.40
2023-03-06T22:23:04.047Z,4.43
2023-03-06T22:25:48.897Z,4.37
2023-03-06T22:28:33.813Z,4.43
2023-03-06T22:31:18.720Z,4.60
2023-03-06T22:34:03.562Z,4.44
2023-03-06T22:36:48.335Z,4.49
2023-03-06T22:39:33.259Z,4.45
2023-03-06T22:42:18.109Z,4.42
2023-03-06T22:45:03.051Z,4.80
2023-03-06T22:47:47.779Z,4.77
2023-03-06T22:50:32.715Z,4.64
2023-03-06T22:53:17.637Z,4.48
2023-03-06T22:56:02.601Z,4.65
2023-03-06T22:58:47.558Z,4.87
2023-03-06T23:01:32.481Z,5.02
2023-03-06T23:04:17.540Z,4.91
2023-03-06T23:07:02.779Z,4.27
2023-03-06T23:09:47.720Z,4.32
2023-03-06T23:12:32.632Z,3.88
2023-03-06T23:15:17.696Z,3.42
2023-03-06T23:18:02.461Z,3.84
2023-03-06T23:20:47.423Z,3.65
2023-03-06T23:23:32.530Z,3.40
2023-03-06T23:26:17.323Z,4.13
2023-03-06T23:29:02.207Z,4.24
2023-03-06T23:31:47.059Z,3.92
2023-03-06T23:34:32.000Z,4.36
2023-03-06T23:37:16.928Z,4.75
2023-03-06T23:40:01.878Z,4.26
2023-03-06T23:42:46.773Z,3.56
2023-03-06T23:45:31.753Z,3.14
2023-03-06T23:48:16.700Z,3.14
2023-03-06T23:51:01.604Z,3.53
2023-03-06T23:53:46.483Z,3.93
2023-03-06T23:56:31.292Z,4.34
2023-03-06T23:59:16.247Z,4.13
